Time;durP1;ratioP1;P1;durP2;ratioP2;P2;SDS_P1;SDS_P2;PMS_P1;PMS_P2;Temp;Humidity;BMP_temperature;BMP_pressure;BME280_temperature;BME280_humidity;BME280_pressure;Samples;Min_cycle;Max_cycle;Signal;HPM_P1;HPM_P2
2022/09/06 00:00:33;;;;;;;3.60;1.30;;;17.80;99.90;;;;;;5008645;28;20296;-70
2022/09/06 00:02:59;;;;;;;2.40;1.23;;;17.70;99.90;;;;;;5009750;28;20181;-70
2022/09/06 00:05:26;;;;;;;2.50;1.40;;;17.70;99.90;;;;;;5003730;28;20169;-71
2022/09/06 00:07:52;;;;;;;2.50;1.42;;;17.60;99.90;;;;;;5007302;28;20225;-70
2022/09/06 00:10:17;;;;;;;2.08;1.40;;;17.60;99.90;;;;;;5008272;28;20593;-70
2022/09/06 00:12:43;;;;;;;2.97;1.20;;;17.60;99.90;;;;;;5008089;28;20205;-71
2022/09/06 00:15:09;;;;;;;6.93;1.35;;;17.60;99.90;;;;;;5003555;28;20188;-70
2022/09/06 00:17:34;;;;;;;1.42;1.20;;;17.60;99.90;;;;;;5005275;28;20193;-71
2022/09/06 00:20:01;;;;;;;5.95;1.20;;;17.50;99.90;;;;;;5008738;28;20209;-70
2022/09/06 00:22:27;;;;;;;4.32;1.35;;;17.50;99.90;;;;;;5002905;28;20205;-70
2022/09/06 00:24:52;;;;;;;3.42;1.50;;;17.50;99.90;;;;;;5006882;28;20209;-71
2022/09/06 00:27:18;;;;;;;4.53;1.20;;;17.50;99.90;;;;;;5011400;28;20676;-71
2022/09/06 00:29:43;;;;;;;3.13;1.27;;;17.40;99.90;;;;;;5007940;28;20176;-71
2022/09/06 00:32:09;;;;;;;1.80;1.05;;;17.40;99.90;;;;;;5003212;28;20213;-70
2022/09/06 00:34:34;;;;;;;3.25;1.40;;;17.40;99.90;;;;;;5008080;28;20209;-70
2022/09/06 00:37:00;;;;;;;0.98;0.88;;;17.40;99.90;;;;;;5008698;28;20231;-70
2022/09/06 00:39:26;;;;;;;3.95;1.38;;;17.30;99.90;;;;;;5002166;28;20205;-70
2022/09/06 00:41:51;;;;;;;1.38;0.90;;;17.30;99.90;;;;;;5006308;28;20614;-70
2022/09/06 00:44:17;;;;;;;2.03;1.48;;;17.30;99.90;;;;;;5008046;28;20205;-70
2022/09/06 00:46:46;;;;;;;3.38;1.30;;;17.20;99.90;;;;;;5007464;28;20273;-70
2022/09/06 00:49:23;;;;;;;4.65;1.45;;;17.20;99.90;;;;;;5002650;28;20217;-71
2022/09/06 00:51:55;;;;;;;3.67;1.48;;;17.10;99.90;;;;;;5006352;28;20243;-71
2022/09/06 00:54:21;;;;;;;3.40;1.10;;;17.10;99.90;;;;;;5010076;28;20267;-71
2022/09/06 00:56:47;;;;;;;3.95;1.25;;;17.10;99.90;;;;;;5005212;28;20181;-71
2022/09/06 00:59:13;;;;;;;5.45;1.23;;;17.00;99.90;;;;;;5004361;28;20300;-71
2022/09/06 01:01:39;;;;;;;1.27;0.90;;;17.00;99.90;;;;;;5008888;28;20631;-71
2022/09/06 01:04:05;;;;;;;2.55;1.23;;;17.00;99.90;;;;;;5005018;28;20292;-71
2022/09/06 01:06:57;;;;;;;3.88;0.98;;;16.90;99.90;;;;;;5002823;28;20200;-71
2022/09/06 01:09:43;;;;;;;2.35;1.05;;;17.00;99.90;;;;;;5006960;28;20288;-72
2022/09/06 01:12:37;;;;;;;3.65;1.00;;;16.90;99.90;;;;;;4997787;28;20202;-71
2022/09/06 01:15:26;;;;;;;4.45;0.90;;;16.90;99.90;;;;;;5023038;28;20180;-70
2022/09/06 01:18:05;;;;;;;2.03;1.00;;;16.90;99.90;;;;;;5007605;28;20674;-71
2022/09/06 01:20:44;;;;;;;3.28;0.95;;;16.90;99.90;;;;;;5023295;28;20184;-71
2022/09/06 01:23:37;;;;;;;1.25;0.68;;;16.90;99.90;;;;;;5001742;28;20215;-70
2022/09/06 01:26:33;;;;;;;4.57;1.33;;;16.80;99.90;;;;;;5005807;28;20288;-71
2022/09/06 01:29:00;;;;;;;4.15;0.85;;;16.80;99.90;;;;;;4997569;28;20229;-70
2022/09/06 01:31:46;;;;;;;2.05;1.10;;;16.80;99.90;;;;;;5002139;28;20221;-71
2022/09/06 01:34:32;;;;;;;4.35;1.27;;;16.70;99.90;;;;;;5004305;28;20209;-71
2022/09/06 01:37:03;;;;;;;3.78;1.00;;;16.70;99.90;;;;;;5006458;28;20204;-71
2022/09/06 01:39:31;;;;;;;2.22;1.00;;;16.70;99.90;;;;;;5003931;28;20849;-71
2022/09/06 01:42:03;;;;;;;2.25;1.02;;;16.60;99.90;;;;;;5005854;28;20197;-72
2022/09/06 01:44:30;;;;;;;7.28;1.38;;;16.60;99.90;;;;;;5005561;28;20173;-71
2022/09/06 01:47:02;;;;;;;3.00;1.15;;;16.60;99.90;;;;;;5013748;28;20209;-72
2022/09/06 01:49:56;;;;;;;2.05;0.80;;;16.60;99.90;;;;;;5012544;28;20220;-71
2022/09/06 01:53:10;;;;;;;2.08;1.00;;;16.50;99.90;;;;;;5021190;28;20225;-71
2022/09/06 01:55:57;;;;;;;4.68;1.08;;;16.50;99.90;;;;;;5008975;28;20206;-70
2022/09/06 01:58:56;;;;;;;1.40;0.73;;;16.50;99.90;;;;;;5007165;28;20210;-71
2022/09/06 02:01:45;;;;;;;2.53;0.85;;;16.50;99.90;;;;;;5010537;28;20231;-71
2022/09/06 02:04:47;;;;;;;6.10;1.20;;;16.40;99.90;;;;;;5006630;28;20212;-70
2022/09/06 02:07:24;;;;;;;1.75;0.95;;;16.50;99.90;;;;;;5005997;28;20209;-70
2022/09/06 02:10:05;;;;;;;2.53;0.90;;;16.40;99.90;;;;;;5011308;28;20201;-70
2022/09/06 02:12:32;;;;;;;2.53;1.33;;;16.40;99.90;;;;;;5007768;28;20217;-70
2022/09/06 02:15:15;;;;;;;1.00;0.90;;;16.50;99.90;;;;;;5006231;28;20556;-70
2022/09/06 02:17:59;;;;;;;1.73;0.95;;;16.40;99.90;;;;;;5009940;28;20197;-70
2022/09/06 02:20:30;;;;;;;2.63;1.15;;;16.40;99.90;;;;;;5010290;28;20263;-70
2022/09/06 02:22:59;;;;;;;6.43;1.23;;;16.40;99.90;;;;;;5013365;28;20213;-70
2022/09/06 02:25:31;;;;;;;4.70;1.23;;;16.40;99.90;;;;;;5013434;28;20266;-70
2022/09/06 02:27:56;;;;;;;1.42;0.82;;;16.40;99.90;;;;;;5016206;28;20236;-69
2022/09/06 02:30:22;;;;;;;1.35;1.05;;;16.40;99.90;;;;;;5013143;28;20233;-70
2022/09/06 02:32:57;;;;;;;2.75;1.20;;;16.30;99.90;;;;;;5013633;28;20223;-70
2022/09/06 02:35:23;;;;;;;1.05;0.90;;;16.30;99.90;;;;;;5011766;28;20212;-70
2022/09/06 02:37:49;;;;;;;5.18;1.20;;;16.30;99.90;;;;;;5013119;28;20216;-70
2022/09/06 02:40:14;;;;;;;4.97;1.20;;;16.30;99.90;;;;;;5012436;28;20205;-70
2022/09/06 02:42:40;;;;;;;2.83;1.20;;;16.30;99.90;;;;;;5013247;28;20228;-70
2022/09/06 02:45:07;;;;;;;2.13;1.00;;;16.30;99.90;;;;;;5013047;28;20291;-70
2022/09/06 02:47:32;;;;;;;2.25;1.02;;;16.20;99.90;;;;;;5013092;28;20192;-70
2022/09/06 02:49:58;;;;;;;2.47;1.00;;;16.20;99.90;;;;;;5012421;28;20229;-70
2022/09/06 02:52:23;;;;;;;2.70;1.15;;;16.20;99.90;;;;;;5012750;28;20217;-71
2022/09/06 02:54:49;;;;;;;3.70;1.42;;;16.10;99.90;;;;;;5013005;28;20212;-70
2022/09/06 02:57:14;;;;;;;4.07;1.15;;;16.10;99.90;;;;;;5012691;28;20209;-70
2022/09/06 02:59:40;;;;;;;2.00;1.20;;;16.00;99.90;;;;;;5013016;28;20188;-70
2022/09/06 03:02:06;;;;;;;1.20;0.90;;;16.00;99.90;;;;;;5012556;28;20628;-70
2022/09/06 03:04:32;;;;;;;3.67;1.20;;;16.00;99.90;;;;;;5013633;28;20221;-70
2022/09/06 03:06:57;;;;;;;2.67;1.23;;;16.00;99.90;;;;;;5012665;28;20232;-70
2022/09/06 03:09:24;;;;;;;3.08;1.08;;;15.90;99.90;;;;;;5034157;23;20221;-70
2022/09/06 03:11:49;;;;;;;3.15;1.10;;;15.90;99.90;;;;;;5013160;28;20582;-71
2022/09/06 03:14:15;;;;;;;2.80;1.02;;;15.90;99.90;;;;;;5011271;28;20204;-72
2022/09/06 03:16:41;;;;;;;2.88;1.10;;;15.90;99.90;;;;;;5012265;28;20204;-71
2022/09/06 03:19:07;;;;;;;1.70;0.90;;;15.90;99.90;;;;;;5016211;28;20613;-71
2022/09/06 03:21:32;;;;;;;2.88;1.13;;;15.90;99.90;;;;;;5013790;28;20204;-71
2022/09/06 03:23:58;;;;;;;4.25;1.35;;;15.90;99.90;;;;;;5011016;28;20266;-71
2022/09/06 03:26:24;;;;;;;3.22;1.10;;;15.90;99.90;;;;;;5012857;28;20176;-71
2022/09/06 03:28:50;;;;;;;1.85;0.90;;;15.80;99.90;;;;;;5012359;28;20220;-70
2022/09/06 03:31:15;;;;;;;2.10;0.85;;;15.80;99.90;;;;;;5011695;28;20614;-71
2022/09/06 03:33:41;;;;;;;3.05;1.30;;;15.80;99.90;;;;;;5016398;28;20216;-71
2022/09/06 03:36:06;;;;;;;2.20;1.23;;;15.70;99.90;;;;;;5012122;28;20177;-71
2022/09/06 03:38:32;;;;;;;2.88;1.17;;;15.70;99.90;;;;;;5017896;28;20197;-72
2022/09/06 03:40:57;;;;;;;2.83;1.40;;;15.70;99.90;;;;;;5010274;28;20284;-72
2022/09/06 03:43:24;;;;;;;1.98;1.17;;;15.70;99.90;;;;;;5012088;28;20205;-71
2022/09/06 03:45:53;;;;;;;3.85;1.10;;;15.70;99.90;;;;;;5015280;28;20292;-72
2022/09/06 03:48:20;;;;;;;1.40;1.10;;;15.70;99.90;;;;;;5009882;28;20216;-72
2022/09/06 03:50:50;;;;;;;3.42;1.13;;;15.70;99.90;;;;;;5012192;28;20250;-71
2022/09/06 03:53:17;;;;;;;2.75;1.30;;;15.60;99.90;;;;;;5012079;28;20205;-71
2022/09/06 03:55:47;;;;;;;1.48;0.90;;;15.60;99.90;;;;;;5015529;28;20209;-71
2022/09/06 03:58:14;;;;;;;2.47;1.48;;;15.50;99.90;;;;;;5010784;28;20296;-71
2022/09/06 04:00:40;;;;;;;3.75;1.20;;;15.50;99.90;;;;;;5011448;28;20689;-71
2022/09/06 04:03:05;;;;;;;2.55;1.40;;;15.50;99.90;;;;;;5011592;28;20267;-71
2022/09/06 04:05:31;;;;;;;2.85;1.48;;;15.50;99.90;;;;;;5011043;28;20275;-70
2022/09/06 04:07:57;;;;;;;1.63;1.30;;;15.50;99.90;;;;;;5011110;28;20592;-70
2022/09/06 04:10:22;;;;;;;3.00;1.20;;;15.40;99.90;;;;;;5004222;28;20593;-71
2022/09/06 04:12:48;;;;;;;3.75;1.23;;;15.50;99.90;;;;;;5014556;28;20263;-70
2022/09/06 04:15:13;;;;;;;4.43;1.35;;;15.50;99.90;;;;;;5011492;28;20205;-71
2022/09/06 04:17:43;;;;;;;3.60;1.50;;;15.50;99.90;;;;;;5008659;28;20180;-70
2022/09/06 04:20:09;;;;;;;2.92;1.45;;;15.40;99.90;;;;;;5009813;28;20296;-70
2022/09/06 04:22:35;;;;;;;2.47;1.10;;;15.40;99.90;;;;;;5008542;28;20284;-72
2022/09/06 04:25:00;;;;;;;2.05;1.60;;;15.40;99.90;;;;;;5011273;28;20611;-71
2022/09/06 04:27:26;;;;;;;2.33;1.30;;;15.50;99.90;;;;;;5011398;28;20205;-71
2022/09/06 04:29:51;;;;;;;6.80;1.30;;;15.50;99.90;;;;;;5017221;28;20177;-72
2022/09/06 04:32:17;;;;;;;5.72;1.30;;;15.40;99.90;;;;;;5011436;28;20205;-70
2022/09/06 04:34:42;;;;;;;3.25;1.35;;;15.40;99.90;;;;;;5006554;28;20201;-71
2022/09/06 04:37:08;;;;;;;7.05;1.13;;;15.40;99.90;;;;;;5009673;28;20224;-72
2022/09/06 04:39:33;;;;;;;2.38;1.30;;;15.40;99.90;;;;;;5004845;28;20213;-71
2022/09/06 04:41:59;;;;;;;3.45;1.27;;;15.40;99.90;;;;;;5005562;28;20177;-71
2022/09/06 04:44:24;;;;;;;2.88;1.40;;;15.50;99.90;;;;;;5005418;28;20173;-72
2022/09/06 04:47:00;;;;;;;4.25;1.30;;;15.40;99.90;;;;;;5007135;28;20288;-71
2022/09/06 04:49:26;;;;;;;6.00;1.40;;;15.40;99.90;;;;;;5005779;28;20233;-71
2022/09/06 04:51:52;;;;;;;2.97;1.52;;;15.40;99.90;;;;;;5007737;28;20225;-71
2022/09/06 04:54:17;;;;;;;3.22;1.42;;;15.40;99.90;;;;;;5010446;28;20205;-72
2022/09/06 04:56:43;;;;;;;2.40;1.48;;;15.40;99.90;;;;;;5005072;28;20666;-71
2022/09/06 04:59:08;;;;;;;2.35;1.35;;;15.40;99.90;;;;;;5002966;28;20216;-72
2022/09/06 05:01:34;;;;;;;7.40;5.95;;;15.50;99.90;;;;;;5009064;28;20621;-71
2022/09/06 05:03:59;;;;;;;1.00;0.90;;;15.50;99.90;;;;;;5005747;28;20209;-71
2022/09/06 05:06:25;;;;;;;3.60;1.45;;;15.60;99.90;;;;;;5003233;28;20206;-72
2022/09/06 05:08:51;;;;;;;3.28;1.30;;;15.60;99.90;;;;;;5007783;28;20213;-71
2022/09/06 05:11:16;;;;;;;2.28;1.30;;;15.60;99.90;;;;;;5004874;28;20221;-72
2022/09/06 05:13:43;;;;;;;3.10;1.20;;;15.70;99.90;;;;;;5004163;28;20232;-71
2022/09/06 05:16:09;;;;;;;2.65;1.33;;;15.80;99.90;;;;;;5002829;28;20746;-71
2022/09/06 05:18:35;;;;;;;4.63;1.52;;;15.90;99.90;;;;;;5004876;28;20240;-72
2022/09/06 05:21:00;;;;;;;3.30;1.48;;;16.70;99.90;;;;;;5005396;28;20188;-71
2022/09/06 05:23:27;;;;;;;2.67;1.40;;;16.90;99.90;;;;;;5003622;28;20177;-71
2022/09/06 05:25:52;;;;;;;3.67;1.48;;;17.60;99.90;;;;;;5001818;28;20213;-72
2022/09/06 05:28:19;;;;;;;3.80;1.70;;;17.50;99.90;;;;;;5014811;28;20219;-71
2022/09/06 05:30:45;;;;;;;2.50;1.40;;;17.50;99.90;;;;;;5009993;28;20216;-70
2022/09/06 05:33:12;;;;;;;3.08;1.75;;;17.80;99.90;;;;;;5010178;28;20192;-72
2022/09/06 05:35:38;;;;;;;4.72;1.83;;;18.70;99.90;;;;;;5015183;28;20227;-72
2022/09/06 05:38:04;;;;;;;2.85;1.27;;;19.30;99.90;;;;;;5023231;28;20856;-71
2022/09/06 05:40:29;;;;;;;2.67;1.70;;;20.10;99.90;;;;;;5009331;28;20212;-71
2022/09/06 05:42:55;;;;;;;2.80;1.42;;;20.60;99.90;;;;;;5012728;28;20652;-71
2022/09/06 05:45:21;;;;;;;2.95;1.30;;;21.90;99.90;;;;;;5015065;28;20618;-72
2022/09/06 05:47:47;;;;;;;4.78;1.50;;;21.70;99.90;;;;;;5010567;28;20209;-72
2022/09/06 05:50:12;;;;;;;3.55;1.13;;;21.20;99.90;;;;;;5007777;28;20217;-71
2022/09/06 05:52:38;;;;;;;2.60;1.52;;;21.50;99.90;;;;;;5011404;28;20200;-71
2022/09/06 05:55:05;;;;;;;3.45;1.60;;;21.70;99.90;;;;;;5014415;28;20231;-72
2022/09/06 05:57:30;;;;;;;2.85;1.30;;;20.90;99.90;;;;;;5009379;28;20197;-70
2022/09/06 05:59:56;;;;;;;3.50;1.05;;;21.00;99.90;;;;;;5012283;28;20280;-71
2022/09/06 06:02:22;;;;;;;2.67;1.27;;;21.00;99.90;;;;;;5012314;28;20189;-72
2022/09/06 06:04:48;;;;;;;3.13;1.45;;;20.50;99.90;;;;;;5007274;28;20220;-71
2022/09/06 06:07:13;;;;;;;3.58;1.55;;;20.70;99.90;;;;;;5009277;28;20205;-71
2022/09/06 06:09:39;;;;;;;3.13;1.30;;;20.10;99.90;;;;;;5013101;28;20290;-71
2022/09/06 06:12:05;;;;;;;3.50;1.50;;;19.80;99.90;;;;;;5013006;28;20200;-71
2022/09/06 06:14:31;;;;;;;2.65;1.20;;;20.20;99.90;;;;;;5008706;28;20228;-71
2022/09/06 06:16:56;;;;;;;3.33;1.50;;;20.40;99.90;;;;;;5009446;28;20201;-71
2022/09/06 06:19:22;;;;;;;4.30;2.15;;;20.00;99.90;;;;;;5013422;28;20259;-72
2022/09/06 06:21:47;;;;;;;5.32;1.65;;;20.00;99.90;;;;;;5012591;28;20281;-71
2022/09/06 06:24:13;;;;;;;2.72;1.40;;;20.40;99.90;;;;;;5014994;28;20616;-71
2022/09/06 06:26:39;;;;;;;3.45;1.45;;;19.70;99.90;;;;;;5013567;28;20238;-71
2022/09/06 06:29:08;;;;;;;3.13;1.80;;;20.20;99.90;;;;;;5016997;28;20208;-71
2022/09/06 06:31:35;;;;;;;2.40;1.10;;;20.90;99.90;;;;;;5008042;28;20305;-71
2022/09/06 06:34:03;;;;;;;2.70;1.40;;;21.30;99.90;;;;;;5010092;28;20233;-71
2022/09/06 06:36:32;;;;;;;1.77;1.10;;;22.00;99.90;;;;;;5009104;28;20201;-71
2022/09/06 06:38:59;;;;;;;2.22;1.58;;;21.60;99.90;;;;;;5007828;28;20197;-71
2022/09/06 06:41:27;;;;;;;4.00;1.60;;;21.10;99.90;;;;;;5006106;28;20221;-72
2022/09/06 06:43:58;;;;;;;3.42;2.25;;;19.70;99.90;;;;;;5009358;28;20297;-72
2022/09/06 06:46:26;;;;;;;2.80;2.22;;;19.10;99.90;;;;;;5004306;28;20601;-72
2022/09/06 06:48:55;;;;;;;2.95;1.50;;;19.40;99.90;;;;;;5005808;28;20295;-72
2022/09/06 06:51:22;;;;;;;2.17;1.38;;;19.40;99.90;;;;;;5016490;28;20627;-71
2022/09/06 06:53:48;;;;;;;3.53;1.85;;;20.10;99.90;;;;;;5012363;28;20232;-72
2022/09/06 06:56:25;;;;;;;2.97;1.67;;;19.60;99.90;;;;;;5007758;28;20799;-71
2022/09/06 06:58:52;;;;;;;2.97;1.65;;;19.40;99.90;;;;;;5005375;28;20220;-72
2022/09/06 07:01:20;;;;;;;5.68;2.22;;;20.20;99.90;;;;;;5007420;28;20285;-73
2022/09/06 07:03:46;;;;;;;10.95;2.13;;;21.70;99.90;;;;;;5008009;28;20232;-72
2022/09/06 07:06:12;;;;;;;5.40;1.58;;;22.20;99.90;;;;;;5003442;28;20237;-72
2022/09/06 07:08:38;;;;;;;4.22;2.15;;;21.70;99.90;;;;;;4976199;28;1025597;-72
2022/09/06 07:11:05;;;;;;;2.97;1.85;;;21.90;99.90;;;;;;5011108;28;20631;-72
2022/09/06 07:13:33;;;;;;;3.13;2.10;;;22.70;99.90;;;;;;5009755;28;20213;-72
2022/09/06 07:16:21;;;;;;;3.47;1.95;;;23.10;99.90;;;;;;5007761;28;20201;-72
2022/09/06 07:18:51;;;;;;;6.40;2.25;;;22.80;99.90;;;;;;5009269;28;20213;-71
2022/09/06 07:21:19;;;;;;;3.95;2.08;;;22.70;99.90;;;;;;5008482;28;20250;-71
2022/09/06 07:23:45;;;;;;;2.65;1.98;;;23.10;99.90;;;;;;5002610;28;20227;-72
2022/09/06 07:26:31;;;;;;;5.45;2.10;;;23.40;99.90;;;;;;5007346;28;20213;-71
2022/09/06 07:28:58;;;;;;;4.60;2.17;;;22.70;99.90;;;;;;4999139;28;20583;-72
2022/09/06 07:31:25;;;;;;;7.78;5.60;;;22.30;99.90;;;;;;5003430;28;20214;-72
2022/09/06 07:33:51;;;;;;;7.85;2.97;;;22.10;99.90;;;;;;5008277;28;20209;-72
2022/09/06 07:36:16;;;;;;;3.15;1.80;;;22.30;99.90;;;;;;5016011;28;20698;-71
2022/09/06 07:38:46;;;;;;;5.13;2.28;;;22.50;99.90;;;;;;5009328;28;20189;-74
2022/09/06 07:41:11;;;;;;;5.07;2.80;;;22.80;99.90;;;;;;5005505;28;20208;-72
2022/09/06 07:43:37;;;;;;;3.33;2.30;;;22.90;99.90;;;;;;5010550;28;20231;-72
2022/09/06 07:46:07;;;;;;;8.32;2.65;;;22.60;99.90;;;;;;5009497;28;20649;-73
2022/09/06 07:48:35;;;;;;;3.92;2.17;;;23.00;99.90;;;;;;5004795;28;20209;-71
2022/09/06 07:51:11;;;;;;;2.90;2.05;;;22.40;99.90;;;;;;5005559;28;20611;-72
2022/09/06 07:53:39;;;;;;;4.07;2.20;;;22.60;99.90;;;;;;5007368;28;20669;-72
2022/09/06 07:56:06;;;;;;;7.20;2.22;;;22.20;99.90;;;;;;5015570;28;20301;-72
2022/09/06 07:58:32;;;;;;;3.47;2.38;;;22.50;99.90;;;;;;5006788;28;20217;-73
2022/09/06 08:01:36;;;;;;;2.65;1.98;;;23.00;99.90;;;;;;5007692;28;20761;-72
2022/09/06 08:04:12;;;;;;;5.18;1.95;;;22.30;99.90;;;;;;5007889;28;20219;-72
2022/09/06 08:06:45;;;;;;;2.88;1.70;;;22.00;99.90;;;;;;5005783;28;20208;-72
2022/09/06 08:09:10;;;;;;;6.00;2.53;;;21.60;99.90;;;;;;5014439;28;20562;-72
2022/09/06 08:11:37;;;;;;;4.20;2.17;;;21.30;99.90;;;;;;5011162;28;20190;-72
2022/09/06 08:14:05;;;;;;;3.15;2.17;;;21.30;99.90;;;;;;5003322;28;21118;-72
2022/09/06 08:16:32;;;;;;;4.72;2.60;;;21.40;99.90;;;;;;5006434;28;20247;-72
2022/09/06 08:19:00;;;;;;;5.57;2.20;;;21.50;99.90;;;;;;5008371;28;20209;-72
2022/09/06 08:21:28;;;;;;;2.53;1.80;;;21.10;99.90;;;;;;5007851;28;20279;-74
2022/09/06 08:23:59;;;;;;;4.55;2.13;;;21.10;99.90;;;;;;5004851;28;20181;-73
2022/09/06 08:26:26;;;;;;;4.65;2.00;;;21.10;99.90;;;;;;5006619;28;20252;-72
2022/09/06 08:28:57;;;;;;;12.52;3.03;;;21.30;99.90;;;;;;5010504;28;20233;-72
2022/09/06 08:31:23;;;;;;;4.45;2.55;;;21.10;99.90;;;;;;5000948;28;20635;-73
2022/09/06 08:33:50;;;;;;;5.15;2.10;;;21.10;99.90;;;;;;5006985;28;20212;-72
2022/09/06 08:36:15;;;;;;;5.90;2.78;;;21.50;99.90;;;;;;5016376;28;20206;-72
2022/09/06 08:38:41;;;;;;;3.08;2.65;;;20.80;99.90;;;;;;5006675;28;20197;-72
2022/09/06 08:41:16;;;;;;;4.00;2.40;;;20.20;99.90;;;;;;5003359;28;20220;-72
2022/09/06 08:43:56;;;;;;;4.78;2.40;;;20.20;99.90;;;;;;5005880;28;20200;-72
2022/09/06 08:47:17;;;;;;;3.33;2.47;;;20.50;99.90;;;;;;5003421;28;20205;-71
2022/09/06 08:49:45;;;;;;;4.43;2.65;;;20.20;99.90;;;;;;5003140;28;20217;-72
2022/09/06 08:52:55;;;;;;;11.15;2.58;;;20.10;99.90;;;;;;5005680;28;20213;-72
2022/09/06 08:55:40;;;;;;;4.15;2.67;;;20.40;99.90;;;;;;5006986;28;20236;-72
2022/09/06 08:58:15;;;;;;;3.60;2.22;;;21.40;99.90;;;;;;5003035;28;20715;-73
2022/09/06 09:00:45;;;;;;;6.13;2.20;;;21.40;99.90;;;;;;5004713;28;20219;-73
2022/09/06 09:03:15;;;;;;;2.33;1.90;;;20.90;99.90;;;;;;5008423;28;20300;-72
2022/09/06 09:05:42;;;;;;;7.40;3.35;;;21.00;99.90;;;;;;5005290;28;20166;-72
2022/09/06 09:10:43;;;;;;;6.57;3.70;;;20.90;99.90;;;;;;5032847;28;20219;-69
2022/09/06 09:13:20;;;;;;;6.28;3.10;;;20.90;99.90;;;;;;5033217;28;20208;-69
2022/09/06 09:15:45;;;;;;;9.73;4.20;;;21.00;99.90;;;;;;5026758;28;20219;-70
2022/09/06 09:18:11;;;;;;;7.22;3.55;;;21.20;99.90;;;;;;5029881;28;20582;-70
2022/09/06 09:20:37;;;;;;;7.18;3.60;;;21.50;99.90;;;;;;5006955;28;20570;-69
2022/09/06 09:23:03;;;;;;;4.93;2.70;;;21.20;99.90;;;;;;5006472;28;20218;-69
2022/09/06 09:25:32;;;;;;;9.68;2.97;;;21.20;99.90;;;;;;5008742;28;20224;-69
2022/09/06 09:27:59;;;;;;;5.85;3.08;;;21.40;99.90;;;;;;5003409;28;20205;-68
2022/09/06 09:30:26;;;;;;;6.95;3.25;;;21.10;99.90;;;;;;5005616;28;20263;-69
2022/09/06 09:32:51;;;;;;;7.57;3.28;;;21.10;99.90;;;;;;5007684;28;20706;-69
2022/09/06 09:35:35;;;;;;;8.32;4.28;;;21.20;99.90;;;;;;5003180;28;20276;-70
2022/09/06 09:38:11;;;;;;;4.85;2.83;;;21.00;99.90;;;;;;5000399;28;20210;-70
2022/09/06 09:40:48;;;;;;;5.32;3.35;;;20.80;99.90;;;;;;5008009;28;20215;-70
2022/09/06 09:43:30;;;;;;;7.03;3.63;;;20.90;99.90;;;;;;5008028;28;20707;-69
2022/09/06 09:46:13;;;;;;;9.75;4.43;;;20.60;99.90;;;;;;4999506;28;20259;-69
2022/09/06 09:48:44;;;;;;;8.68;4.30;;;20.80;99.90;;;;;;5008458;28;20213;-70
2022/09/06 09:51:24;;;;;;;7.82;3.70;;;20.50;99.90;;;;;;5004437;28;20672;-70
2022/09/06 09:54:02;;;;;;;7.43;4.38;;;20.60;99.90;;;;;;5004389;28;20707;-70
2022/09/06 09:56:51;;;;;;;5.30;4.10;;;20.60;99.90;;;;;;5003101;28;20200;-69
2022/09/06 09:59:35;;;;;;;6.38;3.33;;;21.00;99.90;;;;;;5005997;28;20212;-69
2022/09/06 10:02:15;;;;;;;6.45;3.10;;;21.00;99.90;;;;;;5001245;28;20213;-70
2022/09/06 10:04:48;;;;;;;4.20;2.83;;;21.20;99.90;;;;;;5004114;28;20703;-70
2022/09/06 10:07:17;;;;;;;6.53;3.47;;;21.40;99.90;;;;;;5021428;28;20224;-70
2022/09/06 10:09:45;;;;;;;4.45;3.25;;;20.80;99.90;;;;;;5002770;28;20800;-70
2022/09/06 10:12:28;;;;;;;5.90;3.22;;;20.70;99.90;;;;;;5003550;28;20229;-71
2022/09/06 10:14:54;;;;;;;4.70;2.63;;;21.00;99.90;;;;;;5010918;28;20225;-70
2022/09/06 10:17:29;;;;;;;7.30;4.35;;;21.20;99.90;;;;;;5017060;28;20172;-71
2022/09/06 10:19:56;;;;;;;8.02;3.15;;;21.30;99.90;;;;;;5012129;28;20571;-70
2022/09/06 10:22:28;;;;;;;5.25;3.40;;;21.20;99.90;;;;;;5012499;28;20201;-70
2022/09/06 10:25:02;;;;;;;6.47;3.20;;;21.40;99.90;;;;;;5012702;28;20768;-70
2022/09/06 10:27:27;;;;;;;9.45;4.13;;;21.50;99.90;;;;;;5011028;28;20215;-72
2022/09/06 10:29:54;;;;;;;5.25;3.00;;;21.40;99.90;;;;;;5012408;28;20764;-69
2022/09/06 10:32:50;;;;;;;6.35;3.55;;;21.30;99.90;;;;;;5014927;28;20216;-70
2022/09/06 10:35:21;;;;;;;7.32;2.90;;;21.60;99.90;;;;;;5011639;28;20847;-70
2022/09/06 10:38:15;;;;;;;7.30;3.30;;;21.60;99.90;;;;;;5006401;28;20232;-70
2022/09/06 10:40:54;;;;;;;8.07;4.13;;;21.40;99.90;;;;;;5014192;28;20208;-70
2022/09/06 10:43:20;;;;;;;6.78;4.10;;;21.40;99.90;;;;;;5011416;28;20232;-70
2022/09/06 10:45:46;;;;;;;5.88;3.85;;;21.50;99.90;;;;;;5010791;28;20213;-68
2022/09/06 10:48:14;;;;;;;5.32;3.47;;;21.40;99.90;;;;;;5013946;28;20209;-69
2022/09/06 10:50:48;;;;;;;6.47;3.38;;;21.40;99.90;;;;;;5010312;28;20200;-69
2022/09/06 10:53:53;;;;;;;5.40;4.15;;;21.30;99.90;;;;;;5014090;28;20591;-70
2022/09/06 10:56:23;;;;;;;7.68;4.13;;;21.20;99.90;;;;;;5007027;28;20211;-70
2022/09/06 10:59:02;;;;;;;4.85;3.47;;;21.10;99.90;;;;;;5009586;28;20282;-69
2022/09/06 11:01:36;;;;;;;7.72;4.07;;;21.20;99.90;;;;;;5006547;28;20212;-70
2022/09/06 11:04:08;;;;;;;7.57;3.30;;;21.20;99.90;;;;;;5004780;28;20255;-70
2022/09/06 11:06:41;;;;;;;5.85;3.33;;;21.20;99.90;;;;;;5010577;28;20220;-70
2022/09/06 11:09:32;;;;;;;4.80;3.97;;;21.30;99.90;;;;;;5020762;28;20308;-70
2022/09/06 11:12:06;;;;;;;9.23;4.75;;;21.40;99.90;;;;;;5002202;28;20201;-70
2022/09/06 11:14:34;;;;;;;6.07;4.07;;;21.60;99.90;;;;;;5011607;28;20171;-69
2022/09/06 11:17:07;;;;;;;17.45;3.17;;;21.60;99.90;;;;;;5012053;28;20288;-70
2022/09/06 11:19:43;;;;;;;7.05;3.20;;;21.90;99.90;;;;;;5004190;28;20621;-70
2022/09/06 11:22:27;;;;;;;5.40;3.47;;;21.90;99.90;;;;;;5006517;28;20232;-70
2022/09/06 11:25:30;;;;;;;8.95;5.57;;;21.90;99.90;;;;;;5005649;28;20300;-69
2022/09/06 11:28:00;;;;;;;8.05;4.88;;;21.90;99.90;;;;;;5004824;28;20209;-70
2022/09/06 11:30:28;;;;;;;5.45;3.88;;;21.70;99.90;;;;;;5010513;28;20213;-70
2022/09/06 11:33:23;;;;;;;7.32;4.07;;;21.70;99.90;;;;;;5009506;28;20193;-69
2022/09/06 11:35:48;;;;;;;5.68;4.25;;;21.80;99.90;;;;;;5005262;28;20184;-70
2022/09/06 11:38:14;;;;;;;7.82;3.60;;;21.60;99.90;;;;;;5003494;28;20205;-69
2022/09/06 11:40:46;;;;;;;10.93;4.20;;;21.50;99.90;;;;;;5011744;28;20248;-70
2022/09/06 11:43:34;;;;;;;9.57;3.95;;;21.60;99.90;;;;;;5010359;28;20210;-70
2022/09/06 11:46:00;;;;;;;6.10;3.67;;;21.60;99.90;;;;;;5003741;28;20220;-70
2022/09/06 11:48:25;;;;;;;11.10;4.88;;;21.60;99.90;;;;;;5009115;28;20205;-70
2022/09/06 11:50:53;;;;;;;6.55;3.67;;;21.50;99.90;;;;;;5008018;28;20295;-70
2022/09/06 11:53:25;;;;;;;5.88;3.85;;;21.60;99.90;;;;;;5008057;28;20177;-70
2022/09/06 11:56:10;;;;;;;8.00;3.88;;;21.70;99.90;;;;;;5011573;28;20209;-70
2022/09/06 11:58:39;;;;;;;8.43;3.63;;;21.80;99.90;;;;;;5009115;28;20217;-70
2022/09/06 12:01:17;;;;;;;9.05;3.75;;;21.80;99.90;;;;;;5004045;28;20293;-70
2022/09/06 12:03:51;;;;;;;6.40;3.78;;;21.80;99.90;;;;;;5003105;28;20236;-70
2022/09/06 12:06:21;;;;;;;8.32;3.60;;;21.70;99.90;;;;;;5005936;28;20208;-70
2022/09/06 12:08:48;;;;;;;4.50;3.45;;;21.70;99.90;;;;;;5006135;28;20220;-70
2022/09/06 12:11:26;;;;;;;6.75;4.30;;;21.70;99.90;;;;;;5004131;28;20263;-69
2022/09/06 12:14:18;;;;;;;7.40;4.20;;;21.70;99.90;;;;;;5019402;28;20235;-70
2022/09/06 12:17:12;;;;;;;7.45;4.90;;;21.80;99.90;;;;;;5007736;28;20208;-70
2022/09/06 12:19:44;;;;;;;5.18;3.40;;;21.70;99.90;;;;;;5003647;28;20259;-70
2022/09/06 12:22:25;;;;;;;4.65;3.22;;;21.80;99.90;;;;;;5005495;28;20713;-70
2022/09/06 12:25:06;;;;;;;6.65;3.38;;;21.80;99.90;;;;;;5005474;28;20215;-70
2022/09/06 12:27:48;;;;;;;4.88;3.53;;;21.90;99.90;;;;;;5000853;28;20205;-70
2022/09/06 12:30:31;;;;;;;8.95;3.15;;;21.90;99.90;;;;;;5006213;28;20657;-70
2022/09/06 12:32:59;;;;;;;9.40;3.75;;;22.00;99.90;;;;;;5007774;28;20557;-70
2022/09/06 12:35:33;;;;;;;4.55;3.05;;;22.20;99.90;;;;;;5010281;28;20181;-71
2022/09/06 12:38:09;;;;;;;11.68;3.22;;;22.40;99.90;;;;;;5000256;28;20263;-70
2022/09/06 12:40:44;;;;;;;5.07;3.22;;;22.30;99.90;;;;;;5009007;28;20690;-71
2022/09/06 12:43:12;;;;;;;6.93;4.38;;;22.20;99.90;;;;;;5005416;28;20256;-70
2022/09/06 12:45:45;;;;;;;7.00;3.67;;;22.10;99.90;;;;;;5007790;28;20643;-70
2022/09/06 12:48:25;;;;;;;5.00;3.47;;;22.20;99.90;;;;;;5005073;28;20233;-70
2022/09/06 12:51:02;;;;;;;7.03;3.83;;;22.20;99.90;;;;;;5003242;28;20197;-70
2022/09/06 12:53:30;;;;;;;8.38;3.72;;;22.40;99.90;;;;;;5005252;28;20177;-70
2022/09/06 12:56:04;;;;;;;4.88;3.47;;;22.50;99.90;;;;;;5006910;28;20236;-70
2022/09/06 12:58:30;;;;;;;6.60;4.20;;;22.50;99.90;;;;;;5009470;28;20208;-69
2022/09/06 13:01:02;;;;;;;6.45;4.15;;;22.60;99.90;;;;;;5003315;28;20217;-69
2022/09/06 13:03:34;;;;;;;6.72;3.80;;;22.80;99.90;;;;;;5004466;28;20209;-69
2022/09/06 13:06:04;;;;;;;6.38;3.70;;;22.70;99.90;;;;;;5005027;28;20181;-69
2022/09/06 13:08:53;;;;;;;5.85;3.50;;;22.90;99.90;;;;;;5007290;28;20276;-69